Terminal Aerodrome Forecast
Issued by NWS Sioux Falls, SD

Home | Current Version | Previous Version | Text Only | Print | Product List | Glossary Off
Versions: 1 2 3 4 5 6 7 8 9 10 11 12 13 14 15

000
FTUS43 KFSD 301722 AAB
TAFFSD
TAF AMD
KFSD 301722Z 3017/0118 13008KT P6SM FEW250
     FM010000 11006KT P6SM SKC
     FM010400 11004KT P6SM FEW250
     FM011200 07004KT P6SM BKN025
     FM011500 11005KT P6SM BKN015
     FM011700 12006KT P6SM BKN020=

USA.gov is the U.S. government's official web portal to all federal, state and local government web resources and services.